sensor_id;sensor_type;location;lat;lon;timestamp;pressure;altitude;pressure_sealevel;temperature;humidity
51031;BME280;37058;41.442;23.240;2023-04-28T00:01:43;100746.28;;;9.46;53.09
51031;BME280;37058;41.442;23.240;2023-04-28T00:04:09;100757.66;;;9.43;52.40
51031;BME280;37058;41.442;23.240;2023-04-28T00:06:35;100754.44;;;9.34;53.71
51031;BME280;37058;41.442;23.240;2023-04-28T00:09:01;100756.94;;;9.36;52.80
51031;BME280;37058;41.442;23.240;2023-04-28T00:11:28;100753.53;;;9.40;51.82
51031;BME280;37058;41.442;23.240;2023-04-28T00:13:54;100758.16;;;9.40;52.58
51031;BME280;37058;41.442;23.240;2023-04-28T00:16:19;100756.25;;;9.40;52.41
51031;BME280;37058;41.442;23.240;2023-04-28T00:18:46;100760.28;;;9.38;52.48
51031;BME280;37058;41.442;23.240;2023-04-28T00:21:12;100764.06;;;9.37;52.88
51031;BME280;37058;41.442;23.240;2023-04-28T00:23:38;100747.69;;;9.37;52.61
51031;BME280;37058;41.442;23.240;2023-04-28T00:26:04;100749.38;;;9.38;51.90
51031;BME280;37058;41.442;23.240;2023-04-28T00:28:30;100760.16;;;9.32;53.14
51031;BME280;37058;41.442;23.240;2023-04-28T00:30:56;100762.16;;;9.25;53.62
51031;BME280;37058;41.442;23.240;2023-04-28T00:33:22;100749.38;;;9.14;53.74
51031;BME280;37058;41.442;23.240;2023-04-28T00:35:48;100754.81;;;9.14;53.65
51031;BME280;37058;41.442;23.240;2023-04-28T00:38:13;100756.81;;;9.07;53.45
51031;BME280;37058;41.442;23.240;2023-04-28T00:40:40;100753.13;;;9.13;53.42
51031;BME280;37058;41.442;23.240;2023-04-28T00:43:06;100754.69;;;9.09;53.89
51031;BME280;37058;41.442;23.240;2023-04-28T00:45:32;100758.22;;;9.09;54.11
51031;BME280;37058;41.442;23.240;2023-04-28T00:47:58;100761.66;;;9.05;53.84
51031;BME280;37058;41.442;23.240;2023-04-28T00:50:25;100771.81;;;8.98;55.39
51031;BME280;37058;41.442;23.240;2023-04-28T00:52:51;100779.41;;;8.96;55.28
51031;BME280;37058;41.442;23.240;2023-04-28T00:55:18;100773.94;;;8.96;56.33
51031;BME280;37058;41.442;23.240;2023-04-28T00:57:44;100784.09;;;8.88;56.40
51031;BME280;37058;41.442;23.240;2023-04-28T01:00:11;100783.41;;;8.81;57.20
51031;BME280;37058;41.442;23.240;2023-04-28T01:02:37;100778.63;;;8.77;57.03
51031;BME280;37058;41.442;23.240;2023-04-28T01:05:04;100792.19;;;8.65;57.20
51031;BME280;37058;41.442;23.240;2023-04-28T01:07:30;100786.47;;;8.55;57.90
51031;BME280;37058;41.442;23.240;2023-04-28T01:09:56;100785.66;;;8.54;57.68
51031;BME280;37058;41.442;23.240;2023-04-28T01:12:22;100790.28;;;8.54;58.05
51031;BME280;37058;41.442;23.240;2023-04-28T01:14:48;100790.72;;;8.51;58.27
51031;BME280;37058;41.442;23.240;2023-04-28T01:17:15;100789.53;;;8.46;58.53
51031;BME280;37058;41.442;23.240;2023-04-28T01:19:42;100790.97;;;8.49;58.18
51031;BME280;37058;41.442;23.240;2023-04-28T01:22:07;100798.44;;;8.54;57.96
51031;BME280;37058;41.442;23.240;2023-04-28T01:24:36;100800.41;;;8.46;57.19
51031;BME280;37058;41.442;23.240;2023-04-28T01:27:01;100802.72;;;8.61;56.94
51031;BME280;37058;41.442;23.240;2023-04-28T01:29:27;100800.84;;;8.62;56.95
51031;BME280;37058;41.442;23.240;2023-04-28T01:31:53;100815.53;;;8.42;57.62
51031;BME280;37058;41.442;23.240;2023-04-28T01:34:19;100800.63;;;8.27;58.39
51031;BME280;37058;41.442;23.240;2023-04-28T01:36:45;100816.44;;;8.18;58.29
51031;BME280;37058;41.442;23.240;2023-04-28T01:39:11;100826.72;;;8.16;58.58
51031;BME280;37058;41.442;23.240;2023-04-28T01:41:37;100814.84;;;8.10;59.06
51031;BME280;37058;41.442;23.240;2023-04-28T01:44:03;100812.34;;;7.90;59.71
51031;BME280;37058;41.442;23.240;2023-04-28T01:46:30;100820.34;;;7.85;60.18
51031;BME280;37058;41.442;23.240;2023-04-28T01:48:56;100823.34;;;7.77;60.60
51031;BME280;37058;41.442;23.240;2023-04-28T01:51:22;100822.31;;;7.78;60.65
51031;BME280;37058;41.442;23.240;2023-04-28T01:53:48;100820.03;;;7.75;60.95
51031;BME280;37058;41.442;23.240;2023-04-28T01:56:13;100821.53;;;7.71;61.66
51031;BME280;37058;41.442;23.240;2023-04-28T01:58:39;100814.94;;;7.60;62.33
51031;BME280;37058;41.442;23.240;2023-04-28T02:01:05;100813.94;;;7.54;62.37
51031;BME280;37058;41.442;23.240;2023-04-28T02:03:31;100817.16;;;7.45;62.65
51031;BME280;37058;41.442;23.240;2023-04-28T02:05:57;100822.16;;;7.48;62.46
51031;BME280;37058;41.442;23.240;2023-04-28T02:08:23;100823.88;;;7.42;62.78
51031;BME280;37058;41.442;23.240;2023-04-28T02:10:49;100822.28;;;7.34;63.47
51031;BME280;37058;41.442;23.240;2023-04-28T02:13:15;100803.50;;;7.26;63.74
51031;BME280;37058;41.442;23.240;2023-04-28T02:15:42;100820.69;;;7.20;63.94
51031;BME280;37058;41.442;23.240;2023-04-28T02:18:09;100814.91;;;7.16;64.42
51031;BME280;37058;41.442;23.240;2023-04-28T02:20:35;100820.31;;;7.16;64.23
51031;BME280;37058;41.442;23.240;2023-04-28T02:23:01;100826.81;;;7.09;64.28
51031;BME280;37058;41.442;23.240;2023-04-28T02:25:27;100822.06;;;7.04;64.16
51031;BME280;37058;41.442;23.240;2023-04-28T02:27:53;100825.91;;;6.90;64.34
51031;BME280;37058;41.442;23.240;2023-04-28T02:30:19;100827.22;;;6.81;65.13
51031;BME280;37058;41.442;23.240;2023-04-28T02:32:45;100826.19;;;6.82;65.65
51031;BME280;37058;41.442;23.240;2023-04-28T02:35:11;100821.19;;;6.79;64.47
51031;BME280;37058;41.442;23.240;2023-04-28T02:37:37;100829.53;;;6.84;63.51
51031;BME280;37058;41.442;23.240;2023-04-28T02:40:03;100835.72;;;6.91;63.37
51031;BME280;37058;41.442;23.240;2023-04-28T02:42:29;100843.00;;;6.97;62.94
51031;BME280;37058;41.442;23.240;2023-04-28T02:44:54;100849.78;;;6.81;64.35
51031;BME280;37058;41.442;23.240;2023-04-28T02:47:20;100849.91;;;6.55;65.06
51031;BME280;37058;41.442;23.240;2023-04-28T02:49:46;100871.22;;;6.51;65.52
51031;BME280;37058;41.442;23.240;2023-04-28T02:52:12;100861.59;;;6.55;65.61
51031;BME280;37058;41.442;23.240;2023-04-28T02:54:38;100861.22;;;6.45;66.91
51031;BME280;37058;41.442;23.240;2023-04-28T02:57:04;100853.13;;;6.32;66.78
51031;BME280;37058;41.442;23.240;2023-04-28T02:59:30;100868.59;;;6.31;66.54
51031;BME280;37058;41.442;23.240;2023-04-28T03:01:56;100864.19;;;6.30;67.11
51031;BME280;37058;41.442;23.240;2023-04-28T03:04:22;100867.13;;;6.28;67.61
51031;BME280;37058;41.442;23.240;2023-04-28T03:06:48;100867.97;;;6.29;67.74
51031;BME280;37058;41.442;23.240;2023-04-28T03:09:14;100857.94;;;6.29;66.75
51031;BME280;37058;41.442;23.240;2023-04-28T03:11:40;100869.03;;;6.28;65.76
51031;BME280;37058;41.442;23.240;2023-04-28T03:14:06;100884.44;;;6.34;65.22
51031;BME280;37058;41.442;23.240;2023-04-28T03:16:32;100875.22;;;6.35;65.61
51031;BME280;37058;41.442;23.240;2023-04-28T03:18:58;100880.44;;;6.37;66.14
51031;BME280;37058;41.442;23.240;2023-04-28T03:21:24;100875.84;;;6.37;66.22
51031;BME280;37058;41.442;23.240;2023-04-28T03:23:53;100888.19;;;6.26;66.77
51031;BME280;37058;41.442;23.240;2023-04-28T03:26:19;100884.66;;;6.19;67.15
51031;BME280;37058;41.442;23.240;2023-04-28T03:28:45;100894.25;;;6.15;67.49
51031;BME280;37058;41.442;23.240;2023-04-28T03:31:12;100888.84;;;6.15;67.55
51031;BME280;37058;41.442;23.240;2023-04-28T03:33:37;100896.97;;;6.15;67.50
51031;BME280;37058;41.442;23.240;2023-04-28T03:36:03;100900.94;;;6.19;67.25
51031;BME280;37058;41.442;23.240;2023-04-28T03:38:30;100907.63;;;6.23;67.71
51031;BME280;37058;41.442;23.240;2023-04-28T03:40:56;100912.63;;;6.26;67.68
51031;BME280;37058;41.442;23.240;2023-04-28T03:43:21;100914.69;;;6.31;67.05
51031;BME280;37058;41.442;23.240;2023-04-28T03:45:47;100911.75;;;6.33;66.93
51031;BME280;37058;41.442;23.240;2023-04-28T03:48:14;100922.00;;;6.31;66.69
51031;BME280;37058;41.442;23.240;2023-04-28T03:50:40;100926.81;;;6.28;66.78
51031;BME280;37058;41.442;23.240;2023-04-28T03:53:07;100927.25;;;6.25;66.92
51031;BME280;37058;41.442;23.240;2023-04-28T03:55:32;100934.31;;;6.33;66.47
51031;BME280;37058;41.442;23.240;2023-04-28T03:57:58;100938.88;;;6.46;66.66
51031;BME280;37058;41.442;23.240;2023-04-28T04:00:24;100945.28;;;6.58;66.21
51031;BME280;37058;41.442;23.240;2023-04-28T04:02:50;100943.00;;;6.68;65.87
51031;BME280;37058;41.442;23.240;2023-04-28T04:05:16;100946.09;;;6.79;65.84
51031;BME280;37058;41.442;23.240;2023-04-28T04:07:42;100960.44;;;6.92;65.02
51031;BME280;37058;41.442;23.240;2023-04-28T04:24:11;100968.09;;;7.47;63.49
51031;BME280;37058;41.442;23.240;2023-04-28T04:26:37;100968.63;;;7.63;63.27
51031;BME280;37058;41.442;23.240;2023-04-28T04:29:03;100968.31;;;7.77;62.90
51031;BME280;37058;41.442;23.240;2023-04-28T04:31:28;100963.97;;;7.95;62.88
51031;BME280;37058;41.442;23.240;2023-04-28T04:33:54;100957.31;;;8.16;61.58
51031;BME280;37058;41.442;23.240;2023-04-28T04:36:20;100966.13;;;8.36;60.49
51031;BME280;37058;41.442;23.240;2023-04-28T04:38:46;100966.72;;;8.63;59.26
51031;BME280;37058;41.442;23.240;2023-04-28T04:41:12;100967.47;;;8.89;58.42
51031;BME280;37058;41.442;23.240;2023-04-28T04:43:38;100964.25;;;9.10;57.58
51031;BME280;37058;41.442;23.240;2023-04-28T04:46:04;100968.38;;;9.31;57.39
51031;BME280;37058;41.442;23.240;2023-04-28T04:48:30;100972.38;;;9.59;56.29
51031;BME280;37058;41.442;23.240;2023-04-28T04:50:56;100967.56;;;9.85;55.45
51031;BME280;37058;41.442;23.240;2023-04-28T04:53:21;100975.09;;;10.01;55.09
51031;BME280;37058;41.442;23.240;2023-04-28T04:55:47;100974.88;;;10.14;55.04
51031;BME280;37058;41.442;23.240;2023-04-28T04:58:13;100964.88;;;10.20;53.72
51031;BME280;37058;41.442;23.240;2023-04-28T05:00:39;100983.22;;;10.31;54.10
51031;BME280;37058;41.442;23.240;2023-04-28T05:03:05;100977.28;;;10.34;54.03
51031;BME280;37058;41.442;23.240;2023-04-28T05:05:31;100981.19;;;10.50;53.42
51031;BME280;37058;41.442;23.240;2023-04-28T05:07:57;100985.78;;;10.73;53.28
51031;BME280;37058;41.442;23.240;2023-04-28T05:10:24;100984.81;;;10.91;52.71
51031;BME280;37058;41.442;23.240;2023-04-28T05:12:50;100988.34;;;11.03;52.34
51031;BME280;37058;41.442;23.240;2023-04-28T05:15:16;100994.72;;;11.21;52.07
51031;BME280;37058;41.442;23.240;2023-04-28T05:17:42;100990.13;;;11.38;51.55
51031;BME280;37058;41.442;23.240;2023-04-28T05:20:08;100991.66;;;11.46;50.97
51031;BME280;37058;41.442;23.240;2023-04-28T05:22:34;100993.44;;;11.69;50.67
51031;BME280;37058;41.442;23.240;2023-04-28T05:25:00;101001.47;;;11.87;50.50
51031;BME280;37058;41.442;23.240;2023-04-28T05:27:26;100992.75;;;12.07;50.13
51031;BME280;37058;41.442;23.240;2023-04-28T05:29:52;100992.69;;;12.19;50.20
51031;BME280;37058;41.442;23.240;2023-04-28T05:32:18;100992.19;;;12.39;49.71
51031;BME280;37058;41.442;23.240;2023-04-28T05:34:43;100993.44;;;12.48;48.89
51031;BME280;37058;41.442;23.240;2023-04-28T05:37:09;100996.81;;;12.55;48.44
51031;BME280;37058;41.442;23.240;2023-04-28T05:39:36;100997.88;;;12.71;47.89
51031;BME280;37058;41.442;23.240;2023-04-28T05:42:02;100992.59;;;12.87;47.72
51031;BME280;37058;41.442;23.240;2023-04-28T05:44:30;100995.41;;;12.92;46.99
51031;BME280;37058;41.442;23.240;2023-04-28T05:46:56;100995.72;;;12.95;46.45
51031;BME280;37058;41.442;23.240;2023-04-28T05:49:22;100997.63;;;12.95;46.55
51031;BME280;37058;41.442;23.240;2023-04-28T05:51:48;101000.13;;;12.96;46.84
51031;BME280;37058;41.442;23.240;2023-04-28T05:54:14;101001.66;;;13.09;46.43
51031;BME280;37058;41.442;23.240;2023-04-28T05:56:40;101000.31;;;13.34;46.92
51031;BME280;37058;41.442;23.240;2023-04-28T05:59:06;101004.69;;;13.57;45.87
51031;BME280;37058;41.442;23.240;2023-04-28T06:01:31;101008.16;;;13.74;45.08
51031;BME280;37058;41.442;23.240;2023-04-28T06:03:58;101015.63;;;14.06;44.53
51031;BME280;37058;41.442;23.240;2023-04-28T06:06:26;101005.22;;;14.50;42.21
51031;BME280;37058;41.442;23.240;2023-04-28T06:08:52;100997.81;;;14.93;41.48
51031;BME280;37058;41.442;23.240;2023-04-28T06:11:18;100990.59;;;15.45;40.45
51031;BME280;37058;41.442;23.240;2023-04-28T06:13:49;100990.09;;;16.56;36.18
51031;BME280;37058;41.442;23.240;2023-04-28T06:16:16;100987.88;;;19.66;31.45
51031;BME280;37058;41.442;23.240;2023-04-28T06:18:42;100984.19;;;22.56;26.60
51031;BME280;37058;41.442;23.240;2023-04-28T06:21:08;100992.97;;;24.98;24.21
51031;BME280;37058;41.442;23.240;2023-04-28T06:23:34;100992.63;;;27.05;21.77
51031;BME280;37058;41.442;23.240;2023-04-28T06:26:00;100988.44;;;28.60;20.23
51031;BME280;37058;41.442;23.240;2023-04-28T06:28:26;100983.59;;;29.40;19.29
51031;BME280;37058;41.442;23.240;2023-04-28T06:30:52;100977.56;;;29.77;18.60
51031;BME280;37058;41.442;23.240;2023-04-28T06:33:18;100978.19;;;31.21;16.90
51031;BME280;37058;41.442;23.240;2023-04-28T06:35:44;100971.47;;;28.13;18.29
51031;BME280;37058;41.442;23.240;2023-04-28T06:38:10;100975.91;;;24.35;21.13
51031;BME280;37058;41.442;23.240;2023-04-28T06:40:36;100973.25;;;22.37;23.47
51031;BME280;37058;41.442;23.240;2023-04-28T06:43:02;100971.19;;;20.97;25.09
51031;BME280;37058;41.442;23.240;2023-04-28T06:45:27;100972.38;;;19.65;27.15
51031;BME280;37058;41.442;23.240;2023-04-28T06:47:53;100970.28;;;19.38;27.81
51031;BME280;37058;41.442;23.240;2023-04-28T06:50:23;100970.44;;;19.04;29.13
51031;BME280;37058;41.442;23.240;2023-04-28T06:52:49;100968.16;;;18.87;30.24
51031;BME280;37058;41.442;23.240;2023-04-28T06:55:16;100964.88;;;18.56;30.75
51031;BME280;37058;41.442;23.240;2023-04-28T06:57:42;100964.25;;;18.35;30.53
51031;BME280;37058;41.442;23.240;2023-04-28T07:00:09;100963.06;;;18.17;30.88
51031;BME280;37058;41.442;23.240;2023-04-28T07:02:36;100964.88;;;17.97;31.68
51031;BME280;37058;41.442;23.240;2023-04-28T07:05:02;100953.47;;;17.70;30.15
51031;BME280;37058;41.442;23.240;2023-04-28T07:07:29;100958.31;;;17.44;30.74
51031;BME280;37058;41.442;23.240;2023-04-28T07:09:55;100962.88;;;17.14;31.45
51031;BME280;37058;41.442;23.240;2023-04-28T07:12:21;100952.72;;;17.09;31.93
51031;BME280;37058;41.442;23.240;2023-04-28T07:14:47;100955.50;;;17.09;32.97
51031;BME280;37058;41.442;23.240;2023-04-28T07:17:15;100958.00;;;17.01;32.68
51031;BME280;37058;41.442;23.240;2023-04-28T07:19:41;100962.09;;;17.08;32.94
51031;BME280;37058;41.442;23.240;2023-04-28T07:22:07;100951.66;;;17.00;32.65
51031;BME280;37058;41.442;23.240;2023-04-28T07:24:33;100939.22;;;17.03;32.05
51031;BME280;37058;41.442;23.240;2023-04-28T07:26:59;100948.34;;;16.98;32.08
51031;BME280;37058;41.442;23.240;2023-04-28T07:29:26;100941.41;;;17.06;32.09
51031;BME280;37058;41.442;23.240;2023-04-28T07:31:53;100942.22;;;17.17;32.47
51031;BME280;37058;41.442;23.240;2023-04-28T07:34:19;100941.94;;;17.13;32.72
51031;BME280;37058;41.442;23.240;2023-04-28T07:36:45;100936.69;;;17.17;32.22
51031;BME280;37058;41.442;23.240;2023-04-28T07:39:11;100941.69;;;17.09;31.54
51031;BME280;37058;41.442;23.240;2023-04-28T07:41:37;100946.09;;;17.10;31.98
51031;BME280;37058;41.442;23.240;2023-04-28T07:44:07;100948.91;;;16.95;32.88
51031;BME280;37058;41.442;23.240;2023-04-28T07:46:33;100938.44;;;16.97;32.54
51031;BME280;37058;41.442;23.240;2023-04-28T07:49:00;100934.28;;;17.00;32.41
51031;BME280;37058;41.442;23.240;2023-04-28T07:51:26;100944.16;;;17.06;32.66
51031;BME280;37058;41.442;23.240;2023-04-28T07:53:52;100945.50;;;17.14;32.73
51031;BME280;37058;41.442;23.240;2023-04-28T07:56:17;100931.72;;;17.14;32.12
51031;BME280;37058;41.442;23.240;2023-04-28T07:58:43;100932.84;;;17.13;32.25
51031;BME280;37058;41.442;23.240;2023-04-28T08:01:09;100933.41;;;17.09;32.97
51031;BME280;37058;41.442;23.240;2023-04-28T08:03:36;100932.59;;;17.04;32.60
51031;BME280;37058;41.442;23.240;2023-04-28T08:06:02;100929.28;;;17.07;32.14
51031;BME280;37058;41.442;23.240;2023-04-28T08:08:29;100926.28;;;16.93;31.92
51031;BME280;37058;41.442;23.240;2023-04-28T08:10:55;100928.00;;;16.84;33.20
51031;BME280;37058;41.442;23.240;2023-04-28T08:13:21;100925.50;;;16.87;32.37
51031;BME280;37058;41.442;23.240;2023-04-28T08:15:48;100932.38;;;16.90;33.23
51031;BME280;37058;41.442;23.240;2023-04-28T08:18:14;100923.53;;;16.93;32.86
51031;BME280;37058;41.442;23.240;2023-04-28T08:20:40;100929.06;;;16.88;32.63
51031;BME280;37058;41.442;23.240;2023-04-28T08:23:08;100928.00;;;16.89;32.53
51031;BME280;37058;41.442;23.240;2023-04-28T08:25:34;100926.28;;;16.93;32.30
51031;BME280;37058;41.442;23.240;2023-04-28T08:28:00;100918.53;;;17.00;33.22
51031;BME280;37058;41.442;23.240;2023-04-28T08:30:28;100921.28;;;17.05;31.06
51031;BME280;37058;41.442;23.240;2023-04-28T08:32:54;100917.41;;;17.06;31.91
51031;BME280;37058;41.442;23.240;2023-04-28T08:35:20;100917.41;;;17.01;32.23
51031;BME280;37058;41.442;23.240;2023-04-28T08:37:46;100917.97;;;17.03;32.53
51031;BME280;37058;41.442;23.240;2023-04-28T08:40:14;100921.56;;;16.99;31.96
51031;BME280;37058;41.442;23.240;2023-04-28T08:42:40;100918.03;;;16.93;32.70
51031;BME280;37058;41.442;23.240;2023-04-28T08:45:07;100920.22;;;16.96;32.71
51031;BME280;37058;41.442;23.240;2023-04-28T08:47:38;100914.97;;;17.00;32.29
51031;BME280;37058;41.442;23.240;2023-04-28T08:50:11;100908.59;;;17.04;31.90
51031;BME280;37058;41.442;23.240;2023-04-28T08:52:39;100910.47;;;17.09;32.61
51031;BME280;37058;41.442;23.240;2023-04-28T08:55:11;100916.81;;;17.15;31.71
51031;BME280;37058;41.442;23.240;2023-04-28T08:57:50;100901.88;;;17.21;32.60
51031;BME280;37058;41.442;23.240;2023-04-28T09:00:17;100912.59;;;17.27;32.97
51031;BME280;37058;41.442;23.240;2023-04-28T09:02:43;100907.59;;;17.35;32.74
51031;BME280;37058;41.442;23.240;2023-04-28T09:05:10;100899.56;;;17.38;31.82
51031;BME280;37058;41.442;23.240;2023-04-28T09:07:37;100900.06;;;17.45;32.03
51031;BME280;37058;41.442;23.240;2023-04-28T09:10:23;100899.25;;;17.45;32.22
51031;BME280;37058;41.442;23.240;2023-04-28T09:12:52;100898.34;;;17.49;32.25
51031;BME280;37058;41.442;23.240;2023-04-28T09:15:32;100906.06;;;17.58;32.26
51031;BME280;37058;41.442;23.240;2023-04-28T09:18:03;100892.75;;;17.65;31.92
51031;BME280;37058;41.442;23.240;2023-04-28T09:20:31;100895.47;;;17.70;32.15
51031;BME280;37058;41.442;23.240;2023-04-28T09:23:20;100891.03;;;17.69;32.20
51031;BME280;37058;41.442;23.240;2023-04-28T09:26:04;100886.59;;;17.73;30.53
51031;BME280;37058;41.442;23.240;2023-04-28T09:28:32;100885.63;;;17.53;30.53
51031;BME280;37058;41.442;23.240;2023-04-28T09:30:59;100879.44;;;17.32;30.28
51031;BME280;37058;41.442;23.240;2023-04-28T09:33:25;100884.94;;;17.38;32.79
51031;BME280;37058;41.442;23.240;2023-04-28T09:35:51;100873.28;;;17.46;32.36
51031;BME280;37058;41.442;23.240;2023-04-28T09:38:19;100872.91;;;17.58;31.97
51031;BME280;37058;41.442;23.240;2023-04-28T09:41:12;100874.56;;;17.59;31.13
51031;BME280;37058;41.442;23.240;2023-04-28T09:43:38;100862.91;;;17.62;30.79
51031;BME280;37058;41.442;23.240;2023-04-28T09:46:04;100859.63;;;17.60;31.34
51031;BME280;37058;41.442;23.240;2023-04-28T09:48:36;100854.94;;;17.60;32.24
51031;BME280;37058;41.442;23.240;2023-04-28T09:51:07;100862.66;;;17.63;31.53
51031;BME280;37058;41.442;23.240;2023-04-28T09:53:33;100842.19;;;17.64;30.87
51031;BME280;37058;41.442;23.240;2023-04-28T09:56:02;100837.69;;;17.73;31.62
51031;BME280;37058;41.442;23.240;2023-04-28T09:58:30;100832.97;;;17.74;30.90
51031;BME280;37058;41.442;23.240;2023-04-28T10:00:59;100827.16;;;17.81;32.54
51031;BME280;37058;41.442;23.240;2023-04-28T10:03:28;100834.00;;;17.88;32.45
51031;BME280;37058;41.442;23.240;2023-04-28T10:05:56;100828.97;;;17.95;31.99
51031;BME280;37058;41.442;23.240;2023-04-28T10:08:24;100826.69;;;17.97;31.39
51031;BME280;37058;41.442;23.240;2023-04-28T10:10:52;100820.50;;;17.82;31.07
51031;BME280;37058;41.442;23.240;2023-04-28T10:13:20;100819.66;;;17.86;32.04
51031;BME280;37058;41.442;23.240;2023-04-28T10:15:48;100817.66;;;17.92;31.58
51031;BME280;37058;41.442;23.240;2023-04-28T10:18:15;100806.00;;;17.95;32.15
51031;BME280;37058;41.442;23.240;2023-04-28T10:21:08;100808.25;;;17.93;31.63
51031;BME280;37058;41.442;23.240;2023-04-28T10:24:09;100801.06;;;17.92;32.47
51031;BME280;37058;41.442;23.240;2023-04-28T10:27:05;100796.94;;;17.89;31.11
51031;BME280;37058;41.442;23.240;2023-04-28T10:29:33;100797.19;;;17.93;32.39
51031;BME280;37058;41.442;23.240;2023-04-28T10:32:22;100792.72;;;17.97;31.32
51031;BME280;37058;41.442;23.240;2023-04-28T10:34:51;100776.97;;;17.97;30.62
51031;BME280;37058;41.442;23.240;2023-04-28T10:37:17;100779.72;;;17.97;32.20
51031;BME280;37058;41.442;23.240;2023-04-28T10:40:33;100755.91;;;18.02;32.63
51031;BME280;37058;41.442;23.240;2023-04-28T10:43:00;100758.63;;;18.07;32.98
51031;BME280;37058;41.442;23.240;2023-04-28T10:48:18;100751.56;;;18.19;32.02
51031;BME280;37058;41.442;23.240;2023-04-28T10:56:24;100739.69;;;18.19;32.95
51031;BME280;37058;41.442;23.240;2023-04-28T10:58:57;100737.06;;;18.28;33.01
51031;BME280;37058;41.442;23.240;2023-04-28T11:01:28;100728.34;;;18.39;32.92
51031;BME280;37058;41.442;23.240;2023-04-28T11:04:05;100729.69;;;18.42;32.24
51031;BME280;37058;41.442;23.240;2023-04-28T11:06:37;100729.56;;;18.52;32.20
51031;BME280;37058;41.442;23.240;2023-04-28T11:14:35;100719.56;;;18.56;31.54
51031;BME280;37058;41.442;23.240;2023-04-28T11:17:09;100715.88;;;18.61;32.10
51031;BME280;37058;41.442;23.240;2023-04-28T11:19:43;100699.28;;;18.61;31.64
51031;BME280;37058;41.442;23.240;2023-04-28T11:22:17;100697.94;;;18.58;32.19
51031;BME280;37058;41.442;23.240;2023-04-28T11:24:58;100703.69;;;18.62;31.91
51031;BME280;37058;41.442;23.240;2023-04-28T11:27:26;100704.16;;;18.69;31.95
51031;BME280;37058;41.442;23.240;2023-04-28T11:29:52;100693.81;;;18.75;31.77
51031;BME280;37058;41.442;23.240;2023-04-28T11:32:30;100688.44;;;18.83;31.67
51031;BME280;37058;41.442;23.240;2023-04-28T11:34:56;100687.84;;;18.87;30.62
51031;BME280;37058;41.442;23.240;2023-04-28T11:37:22;100680.66;;;18.86;30.85
51031;BME280;37058;41.442;23.240;2023-04-28T11:39:48;100681.28;;;18.82;31.35
51031;BME280;37058;41.442;23.240;2023-04-28T11:42:14;100683.75;;;18.84;31.02
51031;BME280;37058;41.442;23.240;2023-04-28T11:44:48;100675.94;;;18.86;31.36
51031;BME280;37058;41.442;23.240;2023-04-28T11:47:14;100674.75;;;18.92;31.79
51031;BME280;37058;41.442;23.240;2023-04-28T11:49:46;100668.00;;;18.98;31.81
51031;BME280;37058;41.442;23.240;2023-04-28T11:52:12;100662.69;;;19.02;31.25
51031;BME280;37058;41.442;23.240;2023-04-28T11:54:39;100660.50;;;18.99;31.16
51031;BME280;37058;41.442;23.240;2023-04-28T11:57:17;100657.16;;;19.02;31.04
51031;BME280;37058;41.442;23.240;2023-04-28T11:59:43;100647.69;;;18.89;30.03
51031;BME280;37058;41.442;23.240;2023-04-28T12:02:10;100649.53;;;18.94;30.51
51031;BME280;37058;41.442;23.240;2023-04-28T12:04:38;100643.09;;;18.98;31.42
51031;BME280;37058;41.442;23.240;2023-04-28T12:07:06;100639.50;;;18.98;31.63
51031;BME280;37058;41.442;23.240;2023-04-28T12:09:36;100629.94;;;18.90;30.83
51031;BME280;37058;41.442;23.240;2023-04-28T12:12:29;100625.34;;;18.67;30.36
51031;BME280;37058;41.442;23.240;2023-04-28T12:15:01;100614.03;;;18.63;31.29
51031;BME280;37058;41.442;23.240;2023-04-28T12:17:31;100614.75;;;18.55;30.41
51031;BME280;37058;41.442;23.240;2023-04-28T12:20:02;100608.69;;;18.53;30.80
51031;BME280;37058;41.442;23.240;2023-04-28T12:22:29;100603.69;;;18.55;31.40
51031;BME280;37058;41.442;23.240;2023-04-28T12:25:06;100596.09;;;18.60;30.85
51031;BME280;37058;41.442;23.240;2023-04-28T12:27:37;100585.94;;;18.56;30.22
51031;BME280;37058;41.442;23.240;2023-04-28T12:30:30;100587.91;;;18.55;30.52
51031;BME280;37058;41.442;23.240;2023-04-28T12:32:56;100577.06;;;18.59;31.58
51031;BME280;37058;41.442;23.240;2023-04-28T12:35:24;100573.06;;;18.65;31.23
51031;BME280;37058;41.442;23.240;2023-04-28T12:37:51;100569.13;;;18.71;31.39
51031;BME280;37058;41.442;23.240;2023-04-28T12:40:18;100579.81;;;18.78;31.85
51031;BME280;37058;41.442;23.240;2023-04-28T12:42:44;100577.16;;;18.87;31.10
51031;BME280;37058;41.442;23.240;2023-04-28T12:45:10;100572.78;;;18.99;31.25
51031;BME280;37058;41.442;23.240;2023-04-28T12:47:37;100566.00;;;19.05;29.83
51031;BME280;37058;41.442;23.240;2023-04-28T12:50:06;100563.06;;;19.16;31.44
51031;BME280;37058;41.442;23.240;2023-04-28T12:52:33;100563.19;;;19.24;30.96
51031;BME280;37058;41.442;23.240;2023-04-28T12:55:03;100556.09;;;19.32;30.10
51031;BME280;37058;41.442;23.240;2023-04-28T12:57:29;100561.81;;;19.36;29.85
51031;BME280;37058;41.442;23.240;2023-04-28T12:59:55;100546.03;;;19.36;29.21
51031;BME280;37058;41.442;23.240;2023-04-28T13:02:22;100546.84;;;19.37;29.73
51031;BME280;37058;41.442;23.240;2023-04-28T13:04:48;100533.84;;;19.37;29.42
51031;BME280;37058;41.442;23.240;2023-04-28T13:07:14;100537.94;;;19.40;30.67
51031;BME280;37058;41.442;23.240;2023-04-28T13:09:41;100538.66;;;19.45;29.85
51031;BME280;37058;41.442;23.240;2023-04-28T13:12:08;100543.16;;;19.55;29.97
51031;BME280;37058;41.442;23.240;2023-04-28T13:14:34;100541.91;;;19.61;29.51